createdAt,value
2023-05-04T00:00:07.371Z,78.40
2023-05-04T00:03:09.529Z,78.49
2023-05-04T00:06:11.111Z,78.56
2023-05-04T00:09:14.063Z,78.75
2023-05-04T00:12:17.153Z,78.90
2023-05-04T00:15:18.660Z,78.59
2023-05-04T00:18:20.239Z,79.26
2023-05-04T00:21:21.836Z,79.25
2023-05-04T00:24:23.533Z,78.96
2023-05-04T00:27:26.528Z,79.05
2023-05-04T00:30:28.386Z,79.70
2023-05-04T00:33:30.052Z,79.01
2023-05-04T00:36:31.697Z,80.00
2023-05-04T00:39:35.352Z,80.84
2023-05-04T00:42:38.409Z,80.83
2023-05-04T00:45:40.368Z,81.34
2023-05-04T00:48:42.853Z,80.89
2023-05-04T00:51:45.095Z,80.90
2023-05-04T00:54:47.377Z,80.83
2023-05-04T00:57:50.780Z,80.91
2023-05-04T01:00:52.729Z,80.82
2023-05-04T01:03:55.181Z,81.23
2023-05-04T01:07:00.596Z,82.03
2023-05-04T01:10:04.052Z,81.70
2023-05-04T01:13:08.599Z,81.74
2023-05-04T01:16:11.107Z,82.21
2023-05-04T01:19:12.724Z,82.24
2023-05-04T01:22:15.804Z,82.43
2023-05-04T01:25:18.776Z,82.05
2023-05-04T01:28:24.403Z,82.73
2023-05-04T01:31:27.390Z,83.03
2023-05-04T01:34:29.424Z,82.33
2023-05-04T01:37:32.771Z,82.84
2023-05-04T01:40:34.334Z,83.35
2023-05-04T01:43:35.844Z,83.31
2023-05-04T01:46:39.222Z,83.36
2023-05-04T01:49:41.285Z,83.66
2023-05-04T01:52:45.499Z,83.55
2023-05-04T01:55:47.087Z,83.63
2023-05-04T01:58:48.680Z,83.41
2023-05-04T02:01:50.879Z,83.10
2023-05-04T02:04:52.649Z,83.25
2023-05-04T02:07:55.743Z,83.08
2023-05-04T02:10:57.451Z,83.04
2023-05-04T02:13:59.168Z,83.21
2023-05-04T02:17:01.010Z,83.26
2023-05-04T02:20:02.780Z,83.51
2023-05-04T02:23:05.941Z,83.73
2023-05-04T02:26:07.564Z,83.61
2023-05-04T02:29:09.286Z,83.65
2023-05-04T02:32:10.885Z,83.97
2023-05-04T02:35:13.012Z,83.27
2023-05-04T02:38:16.403Z,84.01
2023-05-04T02:41:17.976Z,84.55
2023-05-04T02:44:19.682Z,84.58
2023-05-04T02:47:21.452Z,84.31
2023-05-04T02:50:23.122Z,84.82
2023-05-04T02:53:26.226Z,85.50
2023-05-04T02:56:27.852Z,85.28
2023-05-04T02:59:29.661Z,85.35
2023-05-04T03:02:31.522Z,85.86
2023-05-04T03:05:33.179Z,86.21
2023-05-04T03:08:36.482Z,86.45
2023-05-04T03:11:38.024Z,87.28
2023-05-04T03:14:39.581Z,87.08
2023-05-04T03:17:41.732Z,86.79
2023-05-04T03:20:43.354Z,85.99
2023-05-04T03:23:50.416Z,86.30
2023-05-04T03:26:52.051Z,87.07
2023-05-04T03:29:53.875Z,86.92
2023-05-04T03:32:55.514Z,87.38
2023-05-04T03:35:57.913Z,87.89
2023-05-04T03:39:01.188Z,87.28
2023-05-04T03:42:06.154Z,86.64
2023-05-04T03:45:08.657Z,87.34
2023-05-04T03:48:10.780Z,87.12
2023-05-04T03:51:13.138Z,86.80
2023-05-04T03:54:17.391Z,87.56
2023-05-04T03:57:19.261Z,87.54
2023-05-04T04:00:21.070Z,87.99
2023-05-04T04:03:33.248Z,87.79
2023-05-04T04:06:35.075Z,87.74
2023-05-04T04:09:38.136Z,87.48
2023-05-04T04:12:42.013Z,86.82
2023-05-04T04:15:45.788Z,88.18
2023-05-04T04:18:47.423Z,87.91
2023-05-04T04:21:49.500Z,88.07
2023-05-04T04:24:52.812Z,88.02
2023-05-04T04:27:54.385Z,88.29
2023-05-04T04:30:56.134Z,88.28
2023-05-04T04:33:57.863Z,88.31
2023-05-04T04:36:59.590Z,88.41
2023-05-04T04:40:04.120Z,87.91
2023-05-04T04:43:06.063Z,87.63
2023-05-04T04:46:08.463Z,87.63
2023-05-04T04:49:12.218Z,86.40
2023-05-04T04:52:15.529Z,86.52
2023-05-04T04:55:18.860Z,86.90
2023-05-04T04:58:21.065Z,86.94
2023-05-04T05:01:22.768Z,86.88
2023-05-04T05:04:25.367Z,86.94
2023-05-04T05:07:27.313Z,87.62
2023-05-04T05:10:30.881Z,86.84
2023-05-04T05:13:32.656Z,87.09
2023-05-04T05:16:34.377Z,86.59
2023-05-04T05:19:37.337Z,86.58
2023-05-04T05:22:39.150Z,86.42
2023-05-04T05:25:43.809Z,86.02
2023-05-04T05:28:45.481Z,85.83
2023-05-04T05:31:47.199Z,85.91
2023-05-04T05:34:48.910Z,85.77
2023-05-04T05:37:50.892Z,86.34
2023-05-04T05:40:53.936Z,86.11
2023-05-04T05:43:55.965Z,85.28
2023-05-04T05:46:57.756Z,84.56
2023-05-04T05:49:59.534Z,84.00
2023-05-04T05:53:01.501Z,83.40
2023-05-04T05:56:05.094Z,82.85
2023-05-04T05:59:06.717Z,82.97
2023-05-04T06:02:08.508Z,82.84
2023-05-04T06:05:10.989Z,82.82
2023-05-04T06:08:12.874Z,83.58
2023-05-04T06:11:15.771Z,82.82
2023-05-04T06:14:17.362Z,83.06
2023-05-04T06:17:19.321Z,82.71
2023-05-04T06:20:21.197Z,82.65
2023-05-04T06:23:23.117Z,82.12
2023-05-04T06:26:26.012Z,82.54
2023-05-04T06:29:27.901Z,82.19
2023-05-04T06:32:29.809Z,81.53
2023-05-04T06:35:31.750Z,81.74
2023-05-04T06:38:35.640Z,81.95
2023-05-04T06:41:40.893Z,81.28
2023-05-04T06:44:42.830Z,81.61
2023-05-04T06:47:44.470Z,82.35
2023-05-04T06:50:46.056Z,80.99
2023-05-04T06:53:48.070Z,81.24
2023-05-04T06:56:51.490Z,81.90
2023-05-04T06:59:53.293Z,81.18
2023-05-04T07:02:55.070Z,81.30
2023-05-04T07:05:57.026Z,79.89
2023-05-04T07:08:58.533Z,80.02
2023-05-04T07:12:01.411Z,79.82
2023-05-04T07:15:03.363Z,79.97
2023-05-04T07:18:05.366Z,79.99
2023-05-04T07:21:25.955Z,80.18
2023-05-04T07:24:29.682Z,79.98
2023-05-04T07:27:34.868Z,79.69
2023-05-04T07:30:36.623Z,79.01
2023-05-04T07:33:38.419Z,79.21
2023-05-04T07:36:42.031Z,79.42
2023-05-04T07:39:45.064Z,79.93
2023-05-04T07:42:48.231Z,78.51
2023-05-04T07:45:50.336Z,78.32
2023-05-04T07:48:52.096Z,78.00
2023-05-04T07:51:54.133Z,77.50
2023-05-04T07:54:56.405Z,76.55
2023-05-04T07:57:59.388Z,76.19
2023-05-04T08:01:01.152Z,75.71
2023-05-04T08:04:02.887Z,74.89
2023-05-04T08:07:04.562Z,75.84
2023-05-04T08:10:07.032Z,76.58
2023-05-04T08:13:10.141Z,75.64
2023-05-04T08:16:12.593Z,75.29
2023-05-04T08:19:14.561Z,74.40
2023-05-04T08:22:16.180Z,74.54
2023-05-04T08:25:18.133Z,74.55
2023-05-04T08:28:22.310Z,73.35
2023-05-04T08:31:24.000Z,73.41
2023-05-04T08:34:26.796Z,73.24
2023-05-04T08:37:28.651Z,73.49
2023-05-04T08:40:30.522Z,74.02
2023-05-04T08:43:35.876Z,73.32
2023-05-04T08:46:37.742Z,73.53
2023-05-04T08:49:39.377Z,73.43
2023-05-04T08:52:43.869Z,71.90
2023-05-04T08:55:47.472Z,71.80
2023-05-04T08:58:51.018Z,73.04
2023-05-04T09:01:54.825Z,71.71
2023-05-04T09:04:56.523Z,72.26
2023-05-04T09:07:58.340Z,72.22
2023-05-04T09:11:00.096Z,70.95
2023-05-04T09:14:03.154Z,71.06
2023-05-04T09:17:13.533Z,70.46
2023-05-04T09:20:15.215Z,69.98
2023-05-04T09:23:18.098Z,71.11
2023-05-04T09:26:27.717Z,71.32
2023-05-04T09:29:32.422Z,70.43
2023-05-04T09:32:36.922Z,70.06
2023-05-04T09:35:40.162Z,68.94
2023-05-04T09:38:44.440Z,67.97
2023-05-04T09:41:46.337Z,68.06
2023-05-04T09:44:59.560Z,67.65
2023-05-04T09:48:01.443Z,67.10
2023-05-04T09:51:04.241Z,65.20
2023-05-04T09:54:06.382Z,66.35
2023-05-04T09:57:11.506Z,64.78
2023-05-04T10:00:16.300Z,64.42
2023-05-04T10:03:18.591Z,66.18
2023-05-04T10:06:21.607Z,64.73
2023-05-04T10:09:23.379Z,64.60
2023-05-04T10:12:25.023Z,64.25
2023-05-04T10:15:28.233Z,64.35
2023-05-04T10:18:36.675Z,62.02
2023-05-04T10:21:44.933Z,64.00
2023-05-04T10:24:55.396Z,61.32
2023-05-04T10:28:01.729Z,59.89
2023-05-04T10:31:06.293Z,61.74
2023-05-04T10:34:08.428Z,61.48
2023-05-04T10:37:16.583Z,60.98
2023-05-04T10:40:18.300Z,61.05
2023-05-04T10:43:23.011Z,61.09
2023-05-04T10:46:26.285Z,57.87
2023-05-04T10:49:27.907Z,59.38
2023-05-04T10:52:29.683Z,60.59
2023-05-04T10:55:38.826Z,60.11
2023-05-04T10:58:40.703Z,60.49
2023-05-04T11:01:47.423Z,58.82
2023-05-04T11:04:58.382Z,60.31
2023-05-04T11:08:00.551Z,58.98
2023-05-04T11:11:02.988Z,59.80
2023-05-04T11:14:04.791Z,59.29
2023-05-04T11:17:23.941Z,57.14
2023-05-04T11:20:29.862Z,56.75
2023-05-04T11:23:32.305Z,59.02
2023-05-04T11:26:35.300Z,58.25
2023-05-04T11:29:36.945Z,56.66
2023-05-04T11:32:42.998Z,56.55
2023-05-04T11:35:45.257Z,56.78
2023-05-04T11:38:47.778Z,58.19
2023-05-04T11:41:49.742Z,57.14
2023-05-04T11:44:51.773Z,56.64
2023-05-04T11:47:56.755Z,58.03
2023-05-04T11:50:58.671Z,56.58
2023-05-04T11:54:01.283Z,56.91
2023-05-04T11:57:04.262Z,58.34
2023-05-04T12:00:07.042Z,57.02
2023-05-04T12:03:14.461Z,57.45
2023-05-04T12:06:16.469Z,57.36
2023-05-04T12:09:18.062Z,57.33
2023-05-04T12:12:21.397Z,56.06
2023-05-04T12:15:30.570Z,56.68
2023-05-04T12:18:34.134Z,53.63
2023-05-04T12:21:36.222Z,54.66
2023-05-04T12:24:39.839Z,54.94
2023-05-04T12:27:42.148Z,54.28
2023-05-04T12:30:44.026Z,53.49
2023-05-04T12:33:47.567Z,53.69
2023-05-04T12:36:50.788Z,53.84
2023-05-04T12:39:52.372Z,53.31
2023-05-04T12:42:54.124Z,53.43
2023-05-04T12:45:56.097Z,50.47
2023-05-04T12:48:59.185Z,53.81
2023-05-04T12:52:00.935Z,53.32
2023-05-04T12:55:03.256Z,54.37
2023-05-04T12:58:05.098Z,54.58
2023-05-04T13:01:07.415Z,52.95
2023-05-04T13:04:10.544Z,53.78
2023-05-04T13:07:14.766Z,54.47
2023-05-04T13:10:16.935Z,54.83
2023-05-04T13:13:19.340Z,53.75
2023-05-04T13:16:21.202Z,54.16
2023-05-04T13:19:24.293Z,53.45
2023-05-04T13:22:27.159Z,52.94
2023-05-04T13:25:28.852Z,51.89
2023-05-04T13:28:30.807Z,51.56
2023-05-04T13:31:32.528Z,51.71
2023-05-04T13:34:36.497Z,53.63
2023-05-04T13:37:38.474Z,52.45
2023-05-04T13:40:40.577Z,49.99
2023-05-04T13:43:42.141Z,51.05
2023-05-04T13:46:43.927Z,52.30
2023-05-04T13:49:47.633Z,49.87
2023-05-04T13:52:49.192Z,49.52
2023-05-04T13:55:50.971Z,50.57
2023-05-04T13:58:53.914Z,51.13
2023-05-04T14:01:56.159Z,48.71
2023-05-04T14:04:59.185Z,50.23
2023-05-04T14:08:00.813Z,50.63
2023-05-04T14:11:02.848Z,50.46
2023-05-04T14:14:04.487Z,50.74
2023-05-04T14:17:06.472Z,49.73
2023-05-04T14:20:10.605Z,50.51
2023-05-04T14:23:12.194Z,49.85
2023-05-04T14:26:13.928Z,49.60
2023-05-04T14:29:15.530Z,49.95
2023-05-04T14:32:17.324Z,48.93
2023-05-04T14:35:20.410Z,48.38
2023-05-04T14:38:21.986Z,49.05
2023-05-04T14:41:23.673Z,49.42
2023-05-04T14:44:26.207Z,49.21
2023-05-04T14:47:28.873Z,49.38
2023-05-04T14:50:32.210Z,50.11
2023-05-04T14:53:37.024Z,49.62
2023-05-04T14:56:41.021Z,50.10
2023-05-04T14:59:42.925Z,47.78
2023-05-04T15:02:44.580Z,49.04
2023-05-04T15:05:47.788Z,49.23
2023-05-04T15:08:49.415Z,48.10
2023-05-04T15:11:51.118Z,49.00
2023-05-04T15:14:53.106Z,50.11
2023-05-04T15:17:55.423Z,48.45
2023-05-04T15:20:58.453Z,48.80
2023-05-04T15:24:00.573Z,49.71
2023-05-04T15:27:02.506Z,49.63
2023-05-04T15:30:04.962Z,50.40
2023-05-04T15:33:07.041Z,48.89
2023-05-04T15:36:10.370Z,49.54
2023-05-04T15:39:12.364Z,50.37
2023-05-04T15:42:14.145Z,49.90
2023-05-04T15:45:15.805Z,49.71
2023-05-04T15:48:18.657Z,51.18
2023-05-04T15:51:21.826Z,50.37
2023-05-04T15:54:23.829Z,51.52
2023-05-04T15:57:26.482Z,51.21
2023-05-04T16:00:28.368Z,52.37
2023-05-04T16:03:30.847Z,52.35
2023-05-04T16:06:34.153Z,51.40
2023-05-04T16:09:36.145Z,52.84
2023-05-04T16:12:38.234Z,51.74
2023-05-04T16:15:40.288Z,51.77
2023-05-04T16:18:41.943Z,52.21
2023-05-04T16:21:45.190Z,51.88
2023-05-04T16:24:46.795Z,51.72
2023-05-04T16:27:48.645Z,51.67
2023-05-04T16:30:50.547Z,52.63
2023-05-04T16:33:52.396Z,51.83
2023-05-04T16:36:55.928Z,52.81
2023-05-04T16:39:57.630Z,52.72
2023-05-04T16:42:59.401Z,54.19
2023-05-04T16:46:01.435Z,53.74
2023-05-04T16:49:02.966Z,53.73
2023-05-04T16:52:05.956Z,54.01
2023-05-04T16:55:10.622Z,54.35
2023-05-04T16:58:13.389Z,54.51
2023-05-04T17:01:15.066Z,54.65
2023-05-04T17:04:16.796Z,54.69
2023-05-04T17:07:19.956Z,54.78
2023-05-04T17:10:21.715Z,54.33
2023-05-04T17:13:23.267Z,55.18
2023-05-04T17:16:24.887Z,54.79
2023-05-04T17:19:27.061Z,54.57
2023-05-04T17:22:30.060Z,54.40
2023-05-04T17:25:31.556Z,55.29
2023-05-04T17:28:33.418Z,54.82
2023-05-04T17:31:35.076Z,55.39
2023-05-04T17:34:36.851Z,54.97
2023-05-04T17:37:39.802Z,55.27
2023-05-04T17:40:41.375Z,55.30
2023-05-04T17:43:43.044Z,55.47
2023-05-04T17:46:44.771Z,55.56
2023-05-04T17:49:47.586Z,55.77
2023-05-04T17:52:54.367Z,56.03
2023-05-04T17:55:56.291Z,56.60
2023-05-04T17:58:58.038Z,56.99
2023-05-04T18:01:59.867Z,57.47
2023-05-04T18:05:01.659Z,58.12
2023-05-04T18:08:05.639Z,58.39
2023-05-04T18:11:07.327Z,58.47
2023-05-04T18:14:09.297Z,59.22
2023-05-04T18:17:10.839Z,59.27
2023-05-04T18:20:13.307Z,59.28
2023-05-04T18:23:16.458Z,59.65
2023-05-04T18:26:19.284Z,59.33
2023-05-04T18:29:21.440Z,59.73
2023-05-04T18:32:23.123Z,59.93
2023-05-04T18:35:24.779Z,59.88
2023-05-04T18:38:28.507Z,60.22
2023-05-04T18:41:30.337Z,59.96
2023-05-04T18:44:32.019Z,60.24
2023-05-04T18:47:33.723Z,60.41
2023-05-04T18:50:35.271Z,61.31
2023-05-04T18:53:38.433Z,61.36
2023-05-04T18:56:40.369Z,61.40
2023-05-04T18:59:42.263Z,62.34
2023-05-04T19:02:43.941Z,62.99
2023-05-04T19:05:45.775Z,63.53
2023-05-04T19:08:48.652Z,64.37
2023-05-04T19:11:50.456Z,64.42
2023-05-04T19:14:52.101Z,64.89
2023-05-04T19:17:53.963Z,65.44
2023-05-04T19:20:55.739Z,65.70
2023-05-04T19:23:58.933Z,65.99
2023-05-04T19:27:00.768Z,66.07
2023-05-04T19:30:02.532Z,65.68
2023-05-04T19:33:05.608Z,66.20
2023-05-04T19:36:07.744Z,66.15
2023-05-04T19:39:10.894Z,66.20
2023-05-04T19:42:12.443Z,66.87
2023-05-04T19:45:14.317Z,66.86
2023-05-04T19:48:17.516Z,66.87
2023-05-04T19:51:19.473Z,67.35
2023-05-04T19:54:22.519Z,67.50
2023-05-04T19:57:24.137Z,68.11
2023-05-04T20:00:26.148Z,68.10
2023-05-04T20:03:27.648Z,67.84
2023-05-04T20:06:29.317Z,68.26
2023-05-04T20:09:32.530Z,68.04
2023-05-04T20:12:34.610Z,68.49
2023-05-04T20:15:36.254Z,68.37
2023-05-04T20:18:38.059Z,68.15
2023-05-04T20:21:39.619Z,67.98
2023-05-04T20:24:42.681Z,67.97
2023-05-04T20:27:45.462Z,67.40
2023-05-04T20:30:47.069Z,67.09
2023-05-04T20:33:48.601Z,67.42
2023-05-04T20:36:50.335Z,67.28
2023-05-04T20:39:53.382Z,67.19
2023-05-04T20:42:55.251Z,67.47
2023-05-04T20:45:58.472Z,67.62
2023-05-04T20:49:02.806Z,67.80
2023-05-04T20:52:05.147Z,67.65
2023-05-04T20:55:09.234Z,67.84
2023-05-04T20:58:11.695Z,67.89
2023-05-04T21:01:13.350Z,67.72
2023-05-04T21:04:15.375Z,67.85
2023-05-04T21:07:17.039Z,68.31
2023-05-04T21:10:21.496Z,68.47
2023-05-04T21:13:23.426Z,68.68
2023-05-04T21:16:25.300Z,68.00
2023-05-04T21:19:27.069Z,68.27
2023-05-04T21:22:29.479Z,68.15
2023-05-04T21:25:33.064Z,68.13
2023-05-04T21:28:34.956Z,68.68
2023-05-04T21:31:36.597Z,69.26
2023-05-04T21:34:38.337Z,69.35
2023-05-04T21:37:39.870Z,69.50
2023-05-04T21:40:42.903Z,69.08
2023-05-04T21:43:44.721Z,69.53
2023-05-04T21:46:46.787Z,69.59
2023-05-04T21:49:48.481Z,69.51
2023-05-04T21:52:50.305Z,69.53
2023-05-04T21:55:53.350Z,69.58
2023-05-04T21:58:55.037Z,69.51
2023-05-04T22:01:57.307Z,69.65
2023-05-04T22:04:58.906Z,69.78
2023-05-04T22:08:01.037Z,69.48
2023-05-04T22:11:03.969Z,69.37
2023-05-04T22:14:05.933Z,69.59
2023-05-04T22:17:07.781Z,69.44
2023-05-04T22:20:10.437Z,69.76
2023-05-04T22:23:12.327Z,69.82
2023-05-04T22:26:15.401Z,69.73
2023-05-04T22:29:17.097Z,69.80
2023-05-04T22:32:18.754Z,69.79
2023-05-04T22:35:21.008Z,69.62
2023-05-04T22:38:22.782Z,69.49
2023-05-04T22:41:25.906Z,68.99
2023-05-04T22:44:27.547Z,69.06
2023-05-04T22:47:29.189Z,68.94
2023-05-04T22:50:31.026Z,68.95
2023-05-04T22:53:32.632Z,68.87
2023-05-04T22:56:35.587Z,68.94
2023-05-04T22:59:37.302Z,68.71
2023-05-04T23:02:39.219Z,68.55
2023-05-04T23:05:41.104Z,68.62
2023-05-04T23:08:43.181Z,68.53
2023-05-04T23:11:46.286Z,68.38
2023-05-04T23:14:50.112Z,68.92
2023-05-04T23:17:51.884Z,68.73
2023-05-04T23:20:53.442Z,68.40
2023-05-04T23:23:55.349Z,68.41
2023-05-04T23:26:58.901Z,68.26
2023-05-04T23:30:00.696Z,68.68
2023-05-04T23:33:02.729Z,68.63
2023-05-04T23:36:04.646Z,68.82
2023-05-04T23:39:06.681Z,68.68
2023-05-04T23:42:09.872Z,68.81
2023-05-04T23:45:11.834Z,68.77
2023-05-04T23:48:13.374Z,68.66
2023-05-04T23:51:15.348Z,68.58
2023-05-04T23:54:17.238Z,68.54
2023-05-04T23:57:20.156Z,68.62
